sensor_id;sensor_type;location;lat;lon;timestamp;pressure;altitude;pressure_sealevel;temperature;humidity
7966;BME280;4028;43.272;26.932;2022-07-29T00:01:42;99171.84;;;23.28;100.00
7966;BME280;4028;43.272;26.932;2022-07-29T00:04:08;99203.28;;;23.41;100.00
7966;BME280;4028;43.272;26.932;2022-07-29T00:06:33;99199.66;;;23.47;100.00
7966;BME280;4028;43.272;26.932;2022-07-29T00:08:59;99200.47;;;23.47;100.00
7966;BME280;4028;43.272;26.932;2022-07-29T00:11:24;99199.66;;;23.47;100.00
7966;BME280;4028;43.272;26.932;2022-07-29T00:13:50;99204.63;;;23.50;100.00
7966;BME280;4028;43.272;26.932;2022-07-29T00:16:15;99178.00;;;23.35;100.00
7966;BME280;4028;43.272;26.932;2022-07-29T00:18:41;99189.44;;;23.49;100.00
7966;BME280;4028;43.272;26.932;2022-07-29T00:21:06;99197.88;;;23.41;100.00
7966;BME280;4028;43.272;26.932;2022-07-29T00:23:32;99198.25;;;23.44;100.00
7966;BME280;4028;43.272;26.932;2022-07-29T00:25:57;99201.94;;;23.50;100.00
7966;BME280;4028;43.272;26.932;2022-07-29T00:28:23;99193.88;;;23.43;100.00
7966;BME280;4028;43.272;26.932;2022-07-29T00:30:48;99202.59;;;23.45;100.00
7966;BME280;4028;43.272;26.932;2022-07-29T00:33:14;99197.88;;;23.41;100.00
7966;BME280;4028;43.272;26.932;2022-07-29T00:35:39;99189.84;;;23.34;100.00
7966;BME280;4028;43.272;26.932;2022-07-29T00:38:17;99200.81;;;23.39;100.00
7966;BME280;4028;43.272;26.932;2022-07-29T00:40:44;99177.75;;;23.18;100.00
7966;BME280;4028;43.272;26.932;2022-07-29T00:43:11;99207.56;;;23.30;100.00
7966;BME280;4028;43.272;26.932;2022-07-29T00:45:37;99207.84;;;23.22;100.00
7966;BME280;4028;43.272;26.932;2022-07-29T00:48:03;99203.72;;;23.19;100.00
7966;BME280;4028;43.272;26.932;2022-07-29T00:50:30;99202.81;;;23.07;100.00
7966;BME280;4028;43.272;26.932;2022-07-29T00:52:56;99200.09;;;23.07;100.00
7966;BME280;4028;43.272;26.932;2022-07-29T00:55:21;99200.09;;;23.07;100.00
7966;BME280;4028;43.272;26.932;2022-07-29T00:57:47;99196.00;;;23.04;100.00
7966;BME280;4028;43.272;26.932;2022-07-29T01:00:20;99190.94;;;23.08;100.00
7966;BME280;4028;43.272;26.932;2022-07-29T01:02:46;99200.09;;;23.07;100.00
7966;BME280;4028;43.272;26.932;2022-07-29T01:05:14;99193.72;;;23.01;100.00
7966;BME280;4028;43.272;26.932;2022-07-29T01:07:41;99190.13;;;23.07;100.00
7966;BME280;4028;43.272;26.932;2022-07-29T01:10:09;99191.34;;;23.12;100.00
7966;BME280;4028;43.272;26.932;2022-07-29T01:12:36;99181.44;;;23.05;100.00
7966;BME280;4028;43.272;26.932;2022-07-29T01:15:05;99189.63;;;22.99;100.00
7966;BME280;4028;43.272;26.932;2022-07-29T01:17:57;99185.25;;;22.98;100.00
7966;BME280;4028;43.272;26.932;2022-07-29T01:20:58;99188.16;;;22.96;100.00
7966;BME280;4028;43.272;26.932;2022-07-29T01:26:59;99183.69;;;22.90;100.00
7966;BME280;4028;43.272;26.932;2022-07-29T01:29:30;99185.59;;;22.83;100.00
7966;BME280;4028;43.272;26.932;2022-07-29T01:32:10;99189.38;;;22.75;100.00
7966;BME280;4028;43.272;26.932;2022-07-29T01:34:53;99184.66;;;22.71;100.00
7966;BME280;4028;43.272;26.932;2022-07-29T01:39:46;99180.31;;;22.70;100.00
7966;BME280;4028;43.272;26.932;2022-07-29T01:42:32;99183.00;;;22.70;100.00
7966;BME280;4028;43.272;26.932;2022-07-29T01:45:10;99177.22;;;22.66;100.00
7966;BME280;4028;43.272;26.932;2022-07-29T01:47:44;99173.63;;;22.72;100.00
7966;BME280;4028;43.272;26.932;2022-07-29T01:50:14;99178.34;;;22.77;100.00
7966;BME280;4028;43.272;26.932;2022-07-29T01:52:53;99178.69;;;22.62;100.00
7966;BME280;4028;43.272;26.932;2022-07-29T01:55:20;99178.94;;;22.61;100.00
7966;BME280;4028;43.272;26.932;2022-07-29T01:57:48;99174.34;;;22.61;100.00
7966;BME280;4028;43.272;26.932;2022-07-29T02:00:15;99177.06;;;22.61;100.00
7966;BME280;4028;43.272;26.932;2022-07-29T02:02:43;99181.06;;;22.52;100.00
7966;BME280;4028;43.272;26.932;2022-07-29T02:05:13;99185.63;;;22.51;100.00
7966;BME280;4028;43.272;26.932;2022-07-29T02:07:44;99187.69;;;22.56;100.00
7966;BME280;4028;43.272;26.932;2022-07-29T02:10:12;99190.03;;;22.46;100.00
7966;BME280;4028;43.272;26.932;2022-07-29T02:12:39;99188.16;;;22.46;100.00
7966;BME280;4028;43.272;26.932;2022-07-29T02:15:07;99186.97;;;22.42;100.00
7966;BME280;4028;43.272;26.932;2022-07-29T02:17:40;99185.38;;;22.60;100.00
7966;BME280;4028;43.272;26.932;2022-07-29T02:20:07;99182.69;;;22.60;100.00
7966;BME280;4028;43.272;26.932;2022-07-29T02:22:37;99178.75;;;22.55;100.00
7966;BME280;4028;43.272;26.932;2022-07-29T02:25:03;99179.88;;;22.48;100.00
7966;BME280;4028;43.272;26.932;2022-07-29T02:27:31;99191.56;;;22.35;100.00
7966;BME280;4028;43.272;26.932;2022-07-29T02:30:00;99190.34;;;22.38;100.00
7966;BME280;4028;43.272;26.932;2022-07-29T02:32:27;99182.06;;;22.33;100.00
7966;BME280;4028;43.272;26.932;2022-07-29T02:34:54;99192.81;;;22.39;100.00
7966;BME280;4028;43.272;26.932;2022-07-29T02:37:21;99198.03;;;22.34;100.00
7966;BME280;4028;43.272;26.932;2022-07-29T02:39:48;99175.91;;;22.25;100.00
7966;BME280;4028;43.272;26.932;2022-07-29T02:42:17;99195.91;;;22.36;100.00
7966;BME280;4028;43.272;26.932;2022-07-29T02:44:43;99194.91;;;22.37;100.00
7966;BME280;4028;43.272;26.932;2022-07-29T02:47:40;99197.19;;;22.34;100.00
7966;BME280;4028;43.272;26.932;2022-07-29T02:50:17;99191.00;;;22.33;100.00
7966;BME280;4028;43.272;26.932;2022-07-29T02:53:00;99197.53;;;22.44;100.00
7966;BME280;4028;43.272;26.932;2022-07-29T02:55:37;99191.16;;;22.38;100.00
7966;BME280;4028;43.272;26.932;2022-07-29T03:00:37;99195.91;;;22.36;100.00
7966;BME280;4028;43.272;26.932;2022-07-29T03:03:08;99200.13;;;22.32;100.00
7966;BME280;4028;43.272;26.932;2022-07-29T03:05:37;99198.03;;;22.34;100.00
7966;BME280;4028;43.272;26.932;2022-07-29T03:08:04;99208.56;;;22.42;100.00
7966;BME280;4028;43.272;26.932;2022-07-29T03:10:30;99212.25;;;22.41;100.00
7966;BME280;4028;43.272;26.932;2022-07-29T03:12:56;99206.88;;;22.41;100.00
7966;BME280;4028;43.272;26.932;2022-07-29T03:15:23;99209.78;;;22.40;100.00
7966;BME280;4028;43.272;26.932;2022-07-29T03:17:49;99209.78;;;22.40;100.00
7966;BME280;4028;43.272;26.932;2022-07-29T03:20:17;99210.84;;;22.39;100.00
7966;BME280;4028;43.272;26.932;2022-07-29T03:22:44;99194.66;;;22.39;100.00
7966;BME280;4028;43.272;26.932;2022-07-29T03:25:13;99211.06;;;22.37;100.00
7966;BME280;4028;43.272;26.932;2022-07-29T03:27:39;99208.16;;;22.39;100.00
7966;BME280;4028;43.272;26.932;2022-07-29T03:30:06;99210.38;;;22.42;100.00
7966;BME280;4028;43.272;26.932;2022-07-29T03:32:32;99196.16;;;22.35;100.00
7966;BME280;4028;43.272;26.932;2022-07-29T03:34:58;99190.53;;;22.36;100.00
7966;BME280;4028;43.272;26.932;2022-07-29T03:37:23;99191.66;;;22.53;100.00
7966;BME280;4028;43.272;26.932;2022-07-29T03:39:51;99200.56;;;22.79;100.00
7966;BME280;4028;43.272;26.932;2022-07-29T03:42:19;99197.41;;;23.07;100.00
7966;BME280;4028;43.272;26.932;2022-07-29T03:44:47;99202.97;;;23.30;100.00
7966;BME280;4028;43.272;26.932;2022-07-29T03:47:14;99210.59;;;23.33;100.00
7966;BME280;4028;43.272;26.932;2022-07-29T03:49:40;99168.91;;;23.11;100.00
7966;BME280;4028;43.272;26.932;2022-07-29T03:52:07;99181.22;;;23.25;100.00
7966;BME280;4028;43.272;26.932;2022-07-29T03:54:33;99210.63;;;23.70;100.00
7966;BME280;4028;43.272;26.932;2022-07-29T03:57:00;99200.56;;;24.07;100.00
7966;BME280;4028;43.272;26.932;2022-07-29T03:59:27;99210.25;;;24.57;100.00
7966;BME280;4028;43.272;26.932;2022-07-29T04:01:53;99188.84;;;24.79;100.00
7966;BME280;4028;43.272;26.932;2022-07-29T04:04:21;99204.25;;;25.25;100.00
7966;BME280;4028;43.272;26.932;2022-07-29T04:06:47;99204.72;;;25.74;100.00
7966;BME280;4028;43.272;26.932;2022-07-29T04:09:13;99207.16;;;26.44;100.00
7966;BME280;4028;43.272;26.932;2022-07-29T04:11:39;99207.53;;;27.20;100.00
7966;BME280;4028;43.272;26.932;2022-07-29T04:14:05;99192.31;;;27.85;100.00
7966;BME280;4028;43.272;26.932;2022-07-29T04:16:31;99199.47;;;28.50;95.36
7966;BME280;4028;43.272;26.932;2022-07-29T04:18:57;99213.47;;;28.96;85.25
7966;BME280;4028;43.272;26.932;2022-07-29T04:21:22;99206.56;;;29.26;78.45
7966;BME280;4028;43.272;26.932;2022-07-29T04:23:48;99219.81;;;29.55;74.03
7966;BME280;4028;43.272;26.932;2022-07-29T04:26:17;99213.38;;;29.81;67.43
7966;BME280;4028;43.272;26.932;2022-07-29T04:28:43;99213.75;;;30.15;62.97
7966;BME280;4028;43.272;26.932;2022-07-29T04:31:09;99209.16;;;30.57;56.57
7966;BME280;4028;43.272;26.932;2022-07-29T04:33:35;99218.38;;;31.17;54.65
7966;BME280;4028;43.272;26.932;2022-07-29T04:36:00;99210.84;;;31.63;51.16
7966;BME280;4028;43.272;26.932;2022-07-29T04:38:26;99216.31;;;32.23;48.83
7966;BME280;4028;43.272;26.932;2022-07-29T04:40:51;99224.09;;;32.79;47.26
7966;BME280;4028;43.272;26.932;2022-07-29T04:43:17;99225.94;;;33.18;44.93
7966;BME280;4028;43.272;26.932;2022-07-29T04:45:42;99225.69;;;33.43;43.58
7966;BME280;4028;43.272;26.932;2022-07-29T04:48:08;99226.34;;;33.78;42.98
7966;BME280;4028;43.272;26.932;2022-07-29T04:50:34;99229.81;;;34.07;42.25
7966;BME280;4028;43.272;26.932;2022-07-29T04:52:59;99225.06;;;34.32;41.36
7966;BME280;4028;43.272;26.932;2022-07-29T04:55:25;99233.91;;;34.48;41.00
7966;BME280;4028;43.272;26.932;2022-07-29T04:57:51;99206.88;;;34.17;41.03
7966;BME280;4028;43.272;26.932;2022-07-29T05:00:16;99220.53;;;33.60;42.23
7966;BME280;4028;43.272;26.932;2022-07-29T05:02:42;99232.03;;;32.80;43.79
7966;BME280;4028;43.272;26.932;2022-07-29T05:05:08;99239.78;;;31.90;44.65
7966;BME280;4028;43.272;26.932;2022-07-29T05:07:33;99247.41;;;30.92;46.47
7966;BME280;4028;43.272;26.932;2022-07-29T05:09:59;99245.06;;;30.02;48.73
7966;BME280;4028;43.272;26.932;2022-07-29T05:12:25;99248.59;;;29.40;51.30
7966;BME280;4028;43.272;26.932;2022-07-29T05:14:51;99256.25;;;28.69;52.54
7966;BME280;4028;43.272;26.932;2022-07-29T05:17:16;99257.81;;;28.33;55.43
7966;BME280;4028;43.272;26.932;2022-07-29T05:19:42;99258.13;;;27.87;55.52
7966;BME280;4028;43.272;26.932;2022-07-29T05:22:07;99261.66;;;27.66;58.09
7966;BME280;4028;43.272;26.932;2022-07-29T05:24:33;99266.75;;;27.40;61.40
7966;BME280;4028;43.272;26.932;2022-07-29T05:26:58;99256.28;;;27.32;63.08
7966;BME280;4028;43.272;26.932;2022-07-29T05:29:24;99256.59;;;27.14;61.12
7966;BME280;4028;43.272;26.932;2022-07-29T05:31:49;99255.59;;;27.03;62.77
7966;BME280;4028;43.272;26.932;2022-07-29T05:34:16;99251.31;;;27.24;62.88
7966;BME280;4028;43.272;26.932;2022-07-29T05:36:42;99240.25;;;27.31;63.67
7966;BME280;4028;43.272;26.932;2022-07-29T05:39:07;99258.13;;;27.65;61.89
7966;BME280;4028;43.272;26.932;2022-07-29T05:41:33;99258.41;;;27.86;60.62
7966;BME280;4028;43.272;26.932;2022-07-29T05:43:58;99242.00;;;28.03;62.06
7966;BME280;4028;43.272;26.932;2022-07-29T05:46:24;99264.41;;;28.15;57.94
7966;BME280;4028;43.272;26.932;2022-07-29T05:48:49;99261.44;;;28.38;57.83
7966;BME280;4028;43.272;26.932;2022-07-29T05:51:15;99261.69;;;28.37;56.63
7966;BME280;4028;43.272;26.932;2022-07-29T05:53:40;99259.41;;;28.56;57.22
7966;BME280;4028;43.272;26.932;2022-07-29T05:56:06;99262.97;;;28.56;56.01
7966;BME280;4028;43.272;26.932;2022-07-29T05:58:32;99261.56;;;28.86;56.81
7966;BME280;4028;43.272;26.932;2022-07-29T06:00:58;99258.72;;;28.97;53.71
7966;BME280;4028;43.272;26.932;2022-07-29T06:03:27;99262.59;;;29.12;53.54
7966;BME280;4028;43.272;26.932;2022-07-29T06:05:52;99262.19;;;29.30;53.43
7966;BME280;4028;43.272;26.932;2022-07-29T06:08:18;99258.69;;;29.40;52.40
7966;BME280;4028;43.272;26.932;2022-07-29T06:10:44;99260.91;;;29.48;50.21
7966;BME280;4028;43.272;26.932;2022-07-29T06:13:11;99263.72;;;29.58;51.83
7966;BME280;4028;43.272;26.932;2022-07-29T06:15:36;99267.38;;;29.79;50.87
7966;BME280;4028;43.272;26.932;2022-07-29T06:18:02;99215.13;;;29.50;51.00
7966;BME280;4028;43.272;26.932;2022-07-29T06:20:28;99267.69;;;29.98;49.84
7966;BME280;4028;43.272;26.932;2022-07-29T06:22:57;99261.25;;;30.35;50.51
7966;BME280;4028;43.272;26.932;2022-07-29T06:25:22;99260.47;;;30.49;49.61
7966;BME280;4028;43.272;26.932;2022-07-29T06:27:48;99242.72;;;30.57;50.16
7966;BME280;4028;43.272;26.932;2022-07-29T06:30:13;99253.13;;;30.70;48.10
7966;BME280;4028;43.272;26.932;2022-07-29T06:32:39;99256.94;;;30.79;46.85
7966;BME280;4028;43.272;26.932;2022-07-29T06:35:05;99239.72;;;30.69;46.95
7966;BME280;4028;43.272;26.932;2022-07-29T06:37:31;99238.41;;;30.71;46.39
7966;BME280;4028;43.272;26.932;2022-07-29T06:39:56;99258.84;;;31.04;47.66
7966;BME280;4028;43.272;26.932;2022-07-29T06:42:44;99266.22;;;31.09;45.53
7966;BME280;4028;43.272;26.932;2022-07-29T06:45:11;99257.19;;;30.42;46.17
7966;BME280;4028;43.272;26.932;2022-07-29T06:47:36;99263.47;;;30.68;46.03
7966;BME280;4028;43.272;26.932;2022-07-29T06:50:02;99250.94;;;30.93;47.40
7966;BME280;4028;43.272;26.932;2022-07-29T06:52:28;99263.47;;;31.40;46.23
7966;BME280;4028;43.272;26.932;2022-07-29T06:54:54;99260.56;;;31.80;44.54
7966;BME280;4028;43.272;26.932;2022-07-29T06:57:20;99267.25;;;32.14;43.95
7966;BME280;4028;43.272;26.932;2022-07-29T06:59:46;99258.69;;;32.30;43.83
7966;BME280;4028;43.272;26.932;2022-07-29T07:02:11;99258.03;;;32.49;42.85
7966;BME280;4028;43.272;26.932;2022-07-29T07:04:37;99250.72;;;32.73;44.13
7966;BME280;4028;43.272;26.932;2022-07-29T07:07:02;99244.78;;;32.95;43.95
7966;BME280;4028;43.272;26.932;2022-07-29T07:09:28;99247.00;;;33.22;41.48
7966;BME280;4028;43.272;26.932;2022-07-29T07:11:53;99254.53;;;33.06;42.93
7966;BME280;4028;43.272;26.932;2022-07-29T07:14:19;99256.38;;;33.16;39.54
7966;BME280;4028;43.272;26.932;2022-07-29T07:16:44;99262.50;;;33.08;38.77
7966;BME280;4028;43.272;26.932;2022-07-29T07:19:10;99248.25;;;33.06;39.06
7966;BME280;4028;43.272;26.932;2022-07-29T07:21:35;99249.91;;;33.07;39.28
7966;BME280;4028;43.272;26.932;2022-07-29T07:24:00;99254.22;;;33.37;40.49
7966;BME280;4028;43.272;26.932;2022-07-29T07:26:27;99255.19;;;33.27;40.92
7966;BME280;4028;43.272;26.932;2022-07-29T07:28:52;99251.03;;;33.30;37.96
7966;BME280;4028;43.272;26.932;2022-07-29T07:31:18;99248.34;;;32.96;38.72
7966;BME280;4028;43.272;26.932;2022-07-29T07:33:43;99250.34;;;32.85;40.17
7966;BME280;4028;43.272;26.932;2022-07-29T07:36:09;99255.63;;;33.10;39.32
7966;BME280;4028;43.272;26.932;2022-07-29T07:38:34;99250.81;;;32.97;39.77
7966;BME280;4028;43.272;26.932;2022-07-29T07:41:01;99246.47;;;33.20;39.46
7966;BME280;4028;43.272;26.932;2022-07-29T07:43:26;99257.56;;;33.63;39.75
7966;BME280;4028;43.272;26.932;2022-07-29T07:45:52;99245.59;;;33.97;40.45
7966;BME280;4028;43.272;26.932;2022-07-29T07:48:18;99250.97;;;34.26;37.38
7966;BME280;4028;43.272;26.932;2022-07-29T07:50:43;99256.09;;;34.51;36.21
7966;BME280;4028;43.272;26.932;2022-07-29T07:53:09;99245.09;;;34.51;37.38
7966;BME280;4028;43.272;26.932;2022-07-29T07:55:42;99259.50;;;34.62;36.66
7966;BME280;4028;43.272;26.932;2022-07-29T07:58:08;99262.50;;;34.79;38.01
7966;BME280;4028;43.272;26.932;2022-07-29T08:00:34;99252.66;;;34.92;35.41
7966;BME280;4028;43.272;26.932;2022-07-29T08:03:00;99231.88;;;34.86;35.07
7966;BME280;4028;43.272;26.932;2022-07-29T08:05:25;99239.78;;;34.74;35.21
7966;BME280;4028;43.272;26.932;2022-07-29T08:07:50;99245.63;;;34.86;36.18
7966;BME280;4028;43.272;26.932;2022-07-29T08:10:18;99242.97;;;35.13;37.02
7966;BME280;4028;43.272;26.932;2022-07-29T08:13:05;99236.94;;;35.25;35.72
7966;BME280;4028;43.272;26.932;2022-07-29T08:15:31;99249.16;;;35.19;35.45
7966;BME280;4028;43.272;26.932;2022-07-29T08:17:57;99243.50;;;35.43;33.49
7966;BME280;4028;43.272;26.932;2022-07-29T08:20:22;99229.41;;;35.17;34.07
7966;BME280;4028;43.272;26.932;2022-07-29T08:22:48;99246.66;;;35.50;34.52
7966;BME280;4028;43.272;26.932;2022-07-29T08:25:13;99246.00;;;35.26;32.66
7966;BME280;4028;43.272;26.932;2022-07-29T08:27:39;99246.44;;;35.33;33.28
7966;BME280;4028;43.272;26.932;2022-07-29T08:30:04;99241.28;;;35.59;32.50
7966;BME280;4028;43.272;26.932;2022-07-29T08:32:30;99247.25;;;35.33;32.09
7966;BME280;4028;43.272;26.932;2022-07-29T08:34:56;99237.25;;;35.24;33.26
7966;BME280;4028;43.272;26.932;2022-07-29T08:37:22;99232.66;;;35.19;33.02
7966;BME280;4028;43.272;26.932;2022-07-29T08:39:47;99226.66;;;35.17;32.13
7966;BME280;4028;43.272;26.932;2022-07-29T08:42:13;99242.88;;;35.32;31.67
7966;BME280;4028;43.272;26.932;2022-07-29T08:44:39;99239.50;;;35.35;32.01
7966;BME280;4028;43.272;26.932;2022-07-29T08:47:05;99243.78;;;35.28;33.06
7966;BME280;4028;43.272;26.932;2022-07-29T08:49:33;99231.56;;;35.06;32.77
7966;BME280;4028;43.272;26.932;2022-07-29T08:51:59;99228.91;;;35.29;33.30
7966;BME280;4028;43.272;26.932;2022-07-29T08:54:25;99225.56;;;35.59;32.93
7966;BME280;4028;43.272;26.932;2022-07-29T08:56:51;99232.28;;;35.81;33.45
7966;BME280;4028;43.272;26.932;2022-07-29T08:59:22;99226.16;;;35.84;32.99
7966;BME280;4028;43.272;26.932;2022-07-29T09:01:51;99233.41;;;35.66;32.46
7966;BME280;4028;43.272;26.932;2022-07-29T09:04:18;99210.88;;;35.36;32.86
7966;BME280;4028;43.272;26.932;2022-07-29T09:06:47;99208.97;;;35.64;32.58
7966;BME280;4028;43.272;26.932;2022-07-29T09:09:13;99224.28;;;35.93;32.76
7966;BME280;4028;43.272;26.932;2022-07-29T09:11:40;99222.44;;;36.16;33.81
7966;BME280;4028;43.272;26.932;2022-07-29T09:14:06;99219.03;;;36.55;31.16
7966;BME280;4028;43.272;26.932;2022-07-29T09:16:46;99226.78;;;36.53;31.19
7966;BME280;4028;43.272;26.932;2022-07-29T09:19:29;99198.53;;;36.25;32.75
7966;BME280;4028;43.272;26.932;2022-07-29T09:21:56;99220.09;;;36.46;31.73
7966;BME280;4028;43.272;26.932;2022-07-29T09:24:28;99215.28;;;36.51;32.40
7966;BME280;4028;43.272;26.932;2022-07-29T09:27:01;99208.84;;;36.19;31.08
7966;BME280;4028;43.272;26.932;2022-07-29T09:29:27;99196.09;;;35.74;31.85
7966;BME280;4028;43.272;26.932;2022-07-29T09:31:54;99199.47;;;35.71;32.18
7966;BME280;4028;43.272;26.932;2022-07-29T09:34:30;99165.66;;;35.56;33.63
7966;BME280;4028;43.272;26.932;2022-07-29T09:36:56;99202.34;;;36.15;33.43
7966;BME280;4028;43.272;26.932;2022-07-29T09:39:42;99201.44;;;36.29;31.99
7966;BME280;4028;43.272;26.932;2022-07-29T09:42:11;99205.53;;;36.09;31.43
7966;BME280;4028;43.272;26.932;2022-07-29T09:44:42;99202.94;;;35.62;31.94
7966;BME280;4028;43.272;26.932;2022-07-29T09:47:08;99201.84;;;35.63;32.15
7966;BME280;4028;43.272;26.932;2022-07-29T09:49:34;99197.13;;;35.64;32.16
7966;BME280;4028;43.272;26.932;2022-07-29T09:52:07;99203.34;;;35.70;32.39
7966;BME280;4028;43.272;26.932;2022-07-29T09:54:34;99203.34;;;35.70;32.67
7966;BME280;4028;43.272;26.932;2022-07-29T09:57:08;99195.41;;;35.68;33.23
7966;BME280;4028;43.272;26.932;2022-07-29T09:59:37;99190.88;;;36.00;32.07
7966;BME280;4028;43.272;26.932;2022-07-29T10:02:11;99180.75;;;36.09;32.73
7966;BME280;4028;43.272;26.932;2022-07-29T10:04:42;99192.03;;;35.57;32.84
7966;BME280;4028;43.272;26.932;2022-07-29T10:07:08;99185.44;;;35.58;33.63
7966;BME280;4028;43.272;26.932;2022-07-29T10:09:35;99185.50;;;35.39;32.90
7966;BME280;4028;43.272;26.932;2022-07-29T10:12:06;99188.19;;;35.58;33.83
7966;BME280;4028;43.272;26.932;2022-07-29T10:14:32;99185.97;;;35.97;33.68
7966;BME280;4028;43.272;26.932;2022-07-29T10:17:01;99183.78;;;36.07;33.54
7966;BME280;4028;43.272;26.932;2022-07-29T10:19:31;99183.19;;;36.33;32.70
7966;BME280;4028;43.272;26.932;2022-07-29T10:22:01;99182.16;;;36.29;33.40
7966;BME280;4028;43.272;26.932;2022-07-29T10:24:28;99180.72;;;36.45;32.85
7966;BME280;4028;43.272;26.932;2022-07-29T10:26:55;99175.78;;;36.64;32.21
7966;BME280;4028;43.272;26.932;2022-07-29T10:29:22;99168.31;;;36.87;31.76
7966;BME280;4028;43.272;26.932;2022-07-29T10:43:09;99164.72;;;36.11;31.47
7966;BME280;4028;43.272;26.932;2022-07-29T10:45:40;99153.09;;;36.14;31.98
7966;BME280;4028;43.272;26.932;2022-07-29T10:48:05;99157.53;;;36.46;31.89
7966;BME280;4028;43.272;26.932;2022-07-29T10:50:52;99149.00;;;36.34;31.48
7966;BME280;4028;43.272;26.932;2022-07-29T10:53:20;99147.81;;;36.49;30.40
7966;BME280;4028;43.272;26.932;2022-07-29T10:55:46;99143.25;;;36.44;31.19
7966;BME280;4028;43.272;26.932;2022-07-29T10:58:17;99152.44;;;36.39;30.73
7966;BME280;4028;43.272;26.932;2022-07-29T11:00:45;99154.13;;;36.27;31.72
7966;BME280;4028;43.272;26.932;2022-07-29T11:03:43;99156.13;;;36.12;31.05
7966;BME280;4028;43.272;26.932;2022-07-29T11:06:11;99153.50;;;36.07;31.41
7966;BME280;4028;43.272;26.932;2022-07-29T11:08:36;99157.00;;;35.49;32.24
7966;BME280;4028;43.272;26.932;2022-07-29T11:11:31;99149.97;;;35.15;31.54
7966;BME280;4028;43.272;26.932;2022-07-29T11:13:57;99144.75;;;35.00;31.70
7966;BME280;4028;43.272;26.932;2022-07-29T11:16:22;99143.38;;;35.16;32.11
7966;BME280;4028;43.272;26.932;2022-07-29T11:21:36;99133.44;;;35.93;32.00
7966;BME280;4028;43.272;26.932;2022-07-29T11:24:18;99119.53;;;35.76;32.23
7966;BME280;4028;43.272;26.932;2022-07-29T11:27:06;99119.75;;;35.65;31.36
7966;BME280;4028;43.272;26.932;2022-07-29T11:29:32;99113.03;;;35.72;31.75
7966;BME280;4028;43.272;26.932;2022-07-29T11:32:11;99120.53;;;35.80;30.87
7966;BME280;4028;43.272;26.932;2022-07-29T11:34:37;99121.72;;;36.01;31.10
7966;BME280;4028;43.272;26.932;2022-07-29T11:39:44;99118.34;;;36.04;30.42
7966;BME280;4028;43.272;26.932;2022-07-29T11:45:17;99110.81;;;35.96;31.99
7966;BME280;4028;43.272;26.932;2022-07-29T11:50:15;99090.13;;;35.99;31.75
7966;BME280;4028;43.272;26.932;2022-07-29T11:52:44;99093.44;;;36.09;30.88
7966;BME280;4028;43.272;26.932;2022-07-29T11:55:19;99081.53;;;36.00;31.38
7966;BME280;4028;43.272;26.932;2022-07-29T12:00:24;99082.09;;;36.11;30.38
7966;BME280;4028;43.272;26.932;2022-07-29T12:02:49;99084.69;;;35.71;30.32
7966;BME280;4028;43.272;26.932;2022-07-29T12:05:16;99078.03;;;35.50;31.24
7966;BME280;4028;43.272;26.932;2022-07-29T12:07:42;99073.97;;;35.33;31.01
7966;BME280;4028;43.272;26.932;2022-07-29T12:10:08;99077.66;;;35.15;32.54
7966;BME280;4028;43.272;26.932;2022-07-29T12:12:35;99070.03;;;35.12;33.21
7966;BME280;4028;43.272;26.932;2022-07-29T12:15:18;99057.53;;;35.42;31.77
7966;BME280;4028;43.272;26.932;2022-07-29T12:17:46;99068.69;;;35.09;32.25
7966;BME280;4028;43.272;26.932;2022-07-29T12:20:11;99071.34;;;35.14;32.94
7966;BME280;4028;43.272;26.932;2022-07-29T12:22:41;99073.19;;;35.05;33.27
7966;BME280;4028;43.272;26.932;2022-07-29T12:25:11;99066.53;;;35.20;33.40
7966;BME280;4028;43.272;26.932;2022-07-29T12:27:39;99066.38;;;35.16;32.49
7966;BME280;4028;43.272;26.932;2022-07-29T12:30:13;99062.41;;;34.95;33.14
7966;BME280;4028;43.272;26.932;2022-07-29T12:32:41;99057.28;;;34.75;33.37
7966;BME280;4028;43.272;26.932;2022-07-29T12:35:12;99057.41;;;34.83;32.50
7966;BME280;4028;43.272;26.932;2022-07-29T12:37:40;99054.03;;;35.00;32.19
7966;BME280;4028;43.272;26.932;2022-07-29T12:40:08;99054.03;;;35.28;31.48
7966;BME280;4028;43.272;26.932;2022-07-29T12:42:34;99047.06;;;35.30;31.95
7966;BME280;4028;43.272;26.932;2022-07-29T12:45:00;99044.22;;;35.35;31.59
7966;BME280;4028;43.272;26.932;2022-07-29T12:47:25;99043.41;;;35.49;32.45
7966;BME280;4028;43.272;26.932;2022-07-29T12:50:08;99033.31;;;35.66;30.48
7966;BME280;4028;43.272;26.932;2022-07-29T12:52:35;99029.84;;;35.75;31.00
7966;BME280;4028;43.272;26.932;2022-07-29T12:55:01;99030.56;;;35.66;30.31
7966;BME280;4028;43.272;26.932;2022-07-29T12:57:27;99024.38;;;35.61;31.50
7966;BME280;4028;43.272;26.932;2022-07-29T13:00:04;99035.06;;;35.62;30.82
7966;BME280;4028;43.272;26.932;2022-07-29T13:02:30;99025.72;;;35.63;30.80
7966;BME280;4028;43.272;26.932;2022-07-29T13:05:00;99028.47;;;35.63;31.39
7966;BME280;4028;43.272;26.932;2022-07-29T13:07:28;99026.19;;;35.88;30.92
7966;BME280;4028;43.272;26.932;2022-07-29T13:10:16;99025.97;;;35.98;29.56
7966;BME280;4028;43.272;26.932;2022-07-29T13:13:13;99026.50;;;35.86;32.02
7966;BME280;4028;43.272;26.932;2022-07-29T13:15:41;99026.44;;;35.78;31.24
7966;BME280;4028;43.272;26.932;2022-07-29T13:18:32;99017.47;;;35.63;31.16
7966;BME280;4028;43.272;26.932;2022-07-29T13:21:11;99014.50;;;35.60;31.05
7966;BME280;4028;43.272;26.932;2022-07-29T13:23:37;99014.88;;;35.45;31.07
7966;BME280;4028;43.272;26.932;2022-07-29T13:26:10;99003.28;;;35.34;31.64
7966;BME280;4028;43.272;26.932;2022-07-29T13:28:39;99012.88;;;35.23;31.25
7966;BME280;4028;43.272;26.932;2022-07-29T13:31:05;98998.94;;;35.19;31.91
7966;BME280;4028;43.272;26.932;2022-07-29T13:33:30;99006.97;;;35.15;32.30
7966;BME280;4028;43.272;26.932;2022-07-29T13:35:56;99008.22;;;35.09;31.78
7966;BME280;4028;43.272;26.932;2022-07-29T13:38:21;99009.66;;;35.07;31.22
7966;BME280;4028;43.272;26.932;2022-07-29T13:40:47;99011.59;;;35.06;31.74
7966;BME280;4028;43.272;26.932;2022-07-29T13:43:13;99012.72;;;34.91;31.16
7966;BME280;4028;43.272;26.932;2022-07-29T13:45:38;99007.66;;;34.71;31.33
7966;BME280;4028;43.272;26.932;2022-07-29T13:48:04;99004.88;;;34.57;32.07